Happy, Texas
Current Conditions -  °F | °C
As of 7:55 AM on Thursday 29 Jan 2015 (Local Time) from KHRX Reporting Station
Clear Clear  
Wind Chill: 36°   Ceiling: Unl
Heat Index: 42°   Visibility: 10mi
Dew Point: 36°   Wind: 13mph
Humidity: 77%   Direction: 20°NNE
Pressure: 30.4"   Gusts: NA
Location:  34.74°N, 101.85°W
Report Text: KHRX 291355Z AUTO 02011KT 10SM CLR 06/02 A3040 RMK AO2 T00580020
Loading
Personal Weather Stations






























Interactive Weather Map New forecast layout! Learn more

10-Day Weather Forecast

Advertisements
Track Severe Weather on mobile